カンゲルルススアーク の空港の天気 - METARとTAF

カンゲルルススアーク空港 ( BGSF / SFJ ) - グリーンランド カンゲルルススアーク
飛行場実況気象(Metar)
観測時間10/16 05:50 WGST (10/16 07:50 UTC)
風向・風速北東 4m/s
視程-
天気現象
なし
気温-13℃
湿度78%
気圧1018hPa
METARBGSF 160750Z AUTO 04007KT 9999NDV NCD M13/M16 Q1018
過去の天気等 Google飛行場航空写真 Wunderground天気予報

過去48時間のMETAR

飛行場予報(TAF)
発表時間: 10/16 02:54 WGST (10/16 04:54 UTC)
予報対象時間: 16日4時 WGST ~ 17日10時 WGST
風向・風速東北東 5m/s
視程10km以上
少しの雲 雲底高度 6100m
TAF BGSF 160454Z 1606/1712 06010KT 9999 FEW200